Time;durP1;ratioP1;P1;durP2;ratioP2;P2;SDS_P1;SDS_P2;PMS_P1;PMS_P2;Temp;Humidity;BMP_temperature;BMP_pressure;BME280_temperature;BME280_humidity;BME280_pressure;Samples;Min_cycle;Max_cycle;Signal;HPM_P1;HPM_P2
2022/07/22 00:02:11;;;;;;;;;8.33;8.33;;;;;;;;5016520;28;45311;-73
2022/07/22 00:04:36;;;;;;;;;9.00;8.00;;;;;;;;5016415;28;45417;-73
2022/07/22 00:07:01;;;;;;;;;6.67;6.67;;;;;;;;5015821;28;45446;-74
2022/07/22 00:09:27;;;;;;;;;4.33;4.33;;;;;;;;5016002;28;47236;-74
2022/07/22 00:11:52;;;;;;;;;4.67;4.67;;;;;;;;5016040;28;45241;-73
2022/07/22 00:14:17;;;;;;;;;7.00;7.00;;;;;;;;5016232;28;45493;-74
2022/07/22 00:16:43;;;;;;;;;6.33;6.33;;;;;;;;5015393;28;45404;-74
2022/07/22 00:19:08;;;;;;;;;9.33;8.00;;;;;;;;5015945;28;46915;-73
2022/07/22 00:21:33;;;;;;;;;7.67;7.33;;;;;;;;5015837;28;45403;-73
2022/07/22 00:23:59;;;;;;;;;5.00;5.00;;;;;;;;5016054;28;45257;-73
2022/07/22 00:26:24;;;;;;;;;7.00;7.00;;;;;;;;5015952;28;45285;-73
2022/07/22 00:28:49;;;;;;;;;5.67;5.67;;;;;;;;5015442;28;45332;-74
2022/07/22 00:31:14;;;;;;;;;5.67;5.33;;;;;;;;5015619;28;45260;-73
2022/07/22 00:33:40;;;;;;;;;5.67;4.67;;;;;;;;5016145;28;45260;-73
2022/07/22 00:36:06;;;;;;;;;7.00;6.33;;;;;;;;5015973;28;45479;-73
2022/07/22 00:38:31;;;;;;;;;4.67;4.00;;;;;;;;5015245;28;46966;-73
2022/07/22 00:40:56;;;;;;;;;5.00;5.00;;;;;;;;5015263;28;45561;-73
2022/07/22 00:43:22;;;;;;;;;7.33;5.00;;;;;;;;5015639;28;45416;-73
2022/07/22 00:45:47;;;;;;;;;5.33;5.33;;;;;;;;5015876;28;45517;-73
2022/07/22 00:48:13;;;;;;;;;5.00;5.00;;;;;;;;5014552;28;47069;-73
2022/07/22 00:50:38;;;;;;;;;6.00;6.00;;;;;;;;5015472;28;45417;-73
2022/07/22 00:53:03;;;;;;;;;9.00;6.67;;;;;;;;5015300;28;45430;-73
2022/07/22 00:55:28;;;;;;;;;5.00;5.00;;;;;;;;5015312;28;45442;-74
2022/07/22 00:57:54;;;;;;;;;6.33;6.33;;;;;;;;5015218;28;45435;-74
2022/07/22 01:00:20;;;;;;;;;4.67;4.67;;;;;;;;5015540;28;45436;-74
2022/07/22 01:02:46;;;;;;;;;6.00;6.00;;;;;;;;5015822;28;45360;-74
2022/07/22 01:05:11;;;;;;;;;5.00;5.00;;;;;;;;5015034;28;45332;-73
2022/07/22 01:07:37;;;;;;;;;8.67;7.67;;;;;;;;5015251;28;46250;-73
2022/07/22 01:10:03;;;;;;;;;5.00;5.00;;;;;;;;5014739;28;45422;-73
2022/07/22 01:12:28;;;;;;;;;5.67;5.67;;;;;;;;5015411;28;45340;-74
2022/07/22 01:14:53;;;;;;;;;7.00;5.00;;;;;;;;5015050;28;45379;-74
2022/07/22 01:17:18;;;;;;;;;7.33;7.33;;;;;;;;5014909;28;45451;-74
2022/07/22 01:19:44;;;;;;;;;3.67;3.67;;;;;;;;5015566;28;45470;-73
2022/07/22 01:22:09;;;;;;;;;5.33;5.33;;;;;;;;5015354;28;45423;-74
2022/07/22 01:24:35;;;;;;;;;9.00;6.00;;;;;;;;5014972;28;45483;-73
2022/07/22 01:27:00;;;;;;;;;6.33;5.67;;;;;;;;5016779;28;45978;-73
2022/07/22 01:29:25;;;;;;;;;8.33;7.00;;;;;;;;5018655;28;45273;-73
2022/07/22 01:31:51;;;;;;;;;7.67;6.00;;;;;;;;5018261;28;45511;-73
2022/07/22 01:34:16;;;;;;;;;6.67;4.67;;;;;;;;5018973;28;45401;-74
2022/07/22 01:36:41;;;;;;;;;5.00;5.00;;;;;;;;5017704;28;46208;-73
2022/07/22 01:39:06;;;;;;;;;7.33;7.33;;;;;;;;5017783;28;45269;-74
2022/07/22 01:41:32;;;;;;;;;6.00;6.00;;;;;;;;5018574;28;45340;-73
2022/07/22 01:43:57;;;;;;;;;7.00;6.33;;;;;;;;5018776;28;45328;-73
2022/07/22 01:46:23;;;;;;;;;3.33;3.33;;;;;;;;5018316;28;47040;-73
2022/07/22 01:48:49;;;;;;;;;7.33;6.67;;;;;;;;5018444;28;45368;-73
2022/07/22 01:51:14;;;;;;;;;5.00;5.00;;;;;;;;5018063;28;45474;-73
2022/07/22 01:53:39;;;;;;;;;7.00;6.00;;;;;;;;5018293;28;45281;-73
2022/07/22 01:56:05;;;;;;;;;6.33;6.33;;;;;;;;5018098;28;45277;-73
2022/07/22 01:58:30;;;;;;;;;4.67;4.00;;;;;;;;5016697;28;46674;-73
2022/07/22 02:00:55;;;;;;;;;6.00;6.00;;;;;;;;5018248;28;45343;-73
2022/07/22 02:03:20;;;;;;;;;6.00;6.00;;;;;;;;5018082;28;45414;-73
2022/07/22 02:05:46;;;;;;;;;5.00;5.00;;;;;;;;5018234;28;45418;-73
2022/07/22 02:08:12;;;;;;;;;5.33;5.33;;;;;;;;5017625;28;45280;-73
2022/07/22 02:10:37;;;;;;;;;5.00;5.00;;;;;;;;5018296;28;45598;-73
2022/07/22 02:13:03;;;;;;;;;3.67;3.67;;;;;;;;5018180;28;45259;-74
2022/07/22 02:15:28;;;;;;;;;6.33;4.33;;;;;;;;5017879;28;46222;-73
2022/07/22 02:17:53;;;;;;;;;4.67;4.67;;;;;;;;5018080;28;45285;-73
2022/07/22 02:20:19;;;;;;;;;7.00;7.00;;;;;;;;5018131;28;45271;-73
2022/07/22 02:22:44;;;;;;;;;5.00;5.00;;;;;;;;5017317;28;45284;-74
2022/07/22 02:25:10;;;;;;;;;6.33;6.33;;;;;;;;5007031;28;47103;-73
2022/07/22 02:27:35;;;;;;;;;5.00;5.00;;;;;;;;5019640;28;45778;-73
2022/07/22 02:30:00;;;;;;;;;5.33;4.00;;;;;;;;5018134;28;45411;-73
2022/07/22 02:32:25;;;;;;;;;5.33;5.33;;;;;;;;5017788;28;45286;-73
2022/07/22 02:34:51;;;;;;;;;7.00;7.00;;;;;;;;5017309;28;45331;-73
2022/07/22 02:37:16;;;;;;;;;4.33;4.33;;;;;;;;5017570;28;45688;-74
2022/07/22 02:39:41;;;;;;;;;6.00;5.00;;;;;;;;5016706;28;45305;-73
2022/07/22 02:42:07;;;;;;;;;6.33;5.33;;;;;;;;5017942;28;45328;-73
2022/07/22 02:44:32;;;;;;;;;6.33;6.33;;;;;;;;5017691;28;46079;-73
2022/07/22 02:46:57;;;;;;;;;4.00;4.00;;;;;;;;5017584;28;45412;-73
2022/07/22 02:49:22;;;;;;;;;4.67;4.33;;;;;;;;5017418;28;45356;-73
2022/07/22 02:51:47;;;;;;;;;6.67;4.33;;;;;;;;5016869;28;45404;-73
2022/07/22 02:54:13;;;;;;;;;5.00;5.00;;;;;;;;5017531;28;46169;-74
2022/07/22 02:56:38;;;;;;;;;6.00;6.00;;;;;;;;5017419;28;45389;-73
2022/07/22 02:59:03;;;;;;;;;6.00;6.00;;;;;;;;5017661;28;45365;-73
2022/07/22 03:01:28;;;;;;;;;5.33;5.33;;;;;;;;5017337;28;45432;-73
2022/07/22 03:03:53;;;;;;;;;8.00;6.00;;;;;;;;5017243;28;45425;-73
2022/07/22 03:06:20;;;;;;;;;5.00;4.67;;;;;;;;5016621;28;45494;-74
2022/07/22 03:08:46;;;;;;;;;4.00;4.00;;;;;;;;5016997;28;45298;-73
2022/07/22 03:11:11;;;;;;;;;5.00;5.00;;;;;;;;5017400;28;45439;-73
2022/07/22 03:13:37;;;;;;;;;6.00;6.00;;;;;;;;5017279;28;46334;-73
2022/07/22 03:16:02;;;;;;;;;5.33;5.33;;;;;;;;5017053;28;45519;-73
2022/07/22 03:18:28;;;;;;;;;6.33;6.33;;;;;;;;5016365;28;45410;-74
2022/07/22 03:20:53;;;;;;;;;4.33;4.33;;;;;;;;5016803;28;45456;-73
2022/07/22 03:23:18;;;;;;;;;4.67;4.67;;;;;;;;5016492;28;46070;-73
2022/07/22 03:25:43;;;;;;;;;5.67;5.67;;;;;;;;5001554;28;45792;-73
2022/07/22 03:28:08;;;;;;;;;5.33;5.33;;;;;;;;5017164;28;45355;-73
2022/07/22 03:30:34;;;;;;;;;5.67;4.00;;;;;;;;5016964;28;45285;-73
2022/07/22 03:32:59;;;;;;;;;6.00;6.00;;;;;;;;5016381;28;46523;-73
2022/07/22 03:35:24;;;;;;;;;5.33;5.33;;;;;;;;5015164;28;45325;-73
2022/07/22 03:37:49;;;;;;;;;4.33;4.00;;;;;;;;5016100;28;45369;-74
2022/07/22 03:40:15;;;;;;;;;7.00;5.00;;;;;;;;5017050;28;45428;-73
2022/07/22 03:42:40;;;;;;;;;4.00;4.00;;;;;;;;5016296;28;45887;-73
2022/07/22 03:45:06;;;;;;;;;5.33;5.00;;;;;;;;5016812;28;45197;-74
2022/07/22 03:47:31;;;;;;;;;4.00;4.00;;;;;;;;5016900;28;45569;-73
2022/07/22 03:49:58;;;;;;;;;4.67;4.67;;;;;;;;5014933;28;45380;-73
2022/07/22 03:52:23;;;;;;;;;6.00;6.00;;;;;;;;5016455;28;46111;-73
2022/07/22 03:54:48;;;;;;;;;5.33;5.33;;;;;;;;5016399;28;45367;-72
2022/07/22 03:57:13;;;;;;;;;4.33;4.33;;;;;;;;5016528;28;45285;-73
2022/07/22 03:59:39;;;;;;;;;5.67;4.67;;;;;;;;5016619;28;45272;-73
2022/07/22 04:02:04;;;;;;;;;3.67;3.33;;;;;;;;5015965;28;45514;-74
2022/07/22 04:04:29;;;;;;;;;4.33;4.33;;;;;;;;5015531;28;45454;-73
2022/07/22 04:06:55;;;;;;;;;6.67;6.67;;;;;;;;5016096;28;45341;-74
2022/07/22 04:09:20;;;;;;;;;5.00;5.00;;;;;;;;5016183;28;45461;-73
2022/07/22 04:11:46;;;;;;;;;3.67;3.67;;;;;;;;5016152;28;45378;-74
2022/07/22 04:14:11;;;;;;;;;5.33;5.33;;;;;;;;5016313;28;45464;-73
2022/07/22 04:16:36;;;;;;;;;5.33;5.33;;;;;;;;5016386;28;45474;-73
2022/07/22 04:19:02;;;;;;;;;4.67;4.67;;;;;;;;5015706;28;45586;-74
2022/07/22 04:21:27;;;;;;;;;6.67;6.67;;;;;;;;5015757;28;46293;-73
2022/07/22 04:23:53;;;;;;;;;4.33;4.33;;;;;;;;5016227;28;45387;-73
2022/07/22 04:26:18;;;;;;;;;3.00;3.00;;;;;;;;5015707;28;45290;-73
2022/07/22 04:28:44;;;;;;;;;4.67;4.33;;;;;;;;5016139;28;45442;-73
2022/07/22 04:31:09;;;;;;;;;4.67;4.33;;;;;;;;5015095;28;45365;-73
2022/07/22 04:33:34;;;;;;;;;4.00;4.00;;;;;;;;5014372;28;45404;-73
2022/07/22 04:35:59;;;;;;;;;5.33;5.33;;;;;;;;5015485;28;45345;-73
2022/07/22 04:38:24;;;;;;;;;6.33;5.33;;;;;;;;5014568;28;45638;-73
2022/07/22 04:40:50;;;;;;;;;5.33;5.33;;;;;;;;5015667;28;46926;-73
2022/07/22 04:43:15;;;;;;;;;4.00;4.00;;;;;;;;5015715;28;45334;-74
2022/07/22 04:45:40;;;;;;;;;3.33;3.33;;;;;;;;5015879;28;45288;-73
2022/07/22 04:48:05;;;;;;;;;5.00;5.00;;;;;;;;5015634;28;45693;-73
2022/07/22 04:50:30;;;;;;;;;5.00;4.00;;;;;;;;5015008;28;46005;-73
2022/07/22 04:52:56;;;;;;;;;6.67;5.67;;;;;;;;5016097;28;45405;-73
2022/07/22 04:55:21;;;;;;;;;4.33;4.33;;;;;;;;5015097;28;45416;-73
2022/07/22 04:57:46;;;;;;;;;7.67;5.33;;;;;;;;5015805;28;45351;-73
2022/07/22 05:00:12;;;;;;;;;5.00;5.00;;;;;;;;5015477;28;46304;-73
2022/07/22 05:02:37;;;;;;;;;4.00;4.00;;;;;;;;5014826;28;45376;-73
2022/07/22 05:05:02;;;;;;;;;5.67;4.67;;;;;;;;5015733;28;45404;-74
2022/07/22 05:07:28;;;;;;;;;4.33;4.33;;;;;;;;5015740;28;45444;-73
2022/07/22 05:09:53;;;;;;;;;4.33;4.33;;;;;;;;5015060;28;47284;-74
2022/07/22 05:12:18;;;;;;;;;5.00;3.67;;;;;;;;5015137;28;45403;-73
2022/07/22 05:14:43;;;;;;;;;2.67;2.67;;;;;;;;5015793;28;45354;-73
2022/07/22 05:17:09;;;;;;;;;4.33;4.00;;;;;;;;5014850;28;45343;-73
2022/07/22 05:19:37;;;;;;;;;4.00;3.00;;;;;;;;5015252;28;46150;-73
2022/07/22 05:22:02;;;;;;;;;6.00;5.00;;;;;;;;5014984;28;45452;-74
2022/07/22 05:24:27;;;;;;;;;4.00;3.67;;;;;;;;5015022;28;45508;-74
2022/07/22 05:26:52;;;;;;;;;4.00;4.00;;;;;;;;5015099;28;45381;-74
2022/07/22 05:29:18;;;;;;;;;5.00;4.67;;;;;;;;5015067;28;45970;-73
2022/07/22 05:31:43;;;;;;;;;5.00;3.33;;;;;;;;5014513;28;45347;-73
2022/07/22 05:34:08;;;;;;;;;4.00;4.00;;;;;;;;5015364;28;45451;-73
2022/07/22 05:36:33;;;;;;;;;5.00;4.67;;;;;;;;5014646;28;45456;-73
2022/07/22 05:38:59;;;;;;;;;4.00;4.00;;;;;;;;5014936;28;45328;-73
2022/07/22 05:41:24;;;;;;;;;4.67;4.67;;;;;;;;5014713;28;45328;-73
2022/07/22 05:43:49;;;;;;;;;6.00;4.67;;;;;;;;5013854;28;45522;-74
2022/07/22 05:46:15;;;;;;;;;3.33;2.33;;;;;;;;5014839;28;45558;-73
2022/07/22 05:48:40;;;;;;;;;5.33;5.33;;;;;;;;5014973;28;46244;-73
2022/07/22 05:51:10;;;;;;;;;4.67;4.67;;;;;;;;5014711;28;45205;-73
2022/07/22 05:53:35;;;;;;;;;4.33;3.33;;;;;;;;5014928;28;45281;-72
2022/07/22 05:56:00;;;;;;;;;5.33;5.33;;;;;;;;5014763;28;45491;-74
2022/07/22 05:58:25;;;;;;;;;4.67;4.67;;;;;;;;5014331;28;45442;-74
2022/07/22 06:00:50;;;;;;;;;5.00;5.00;;;;;;;;5014479;28;45396;-73
2022/07/22 06:03:16;;;;;;;;;5.67;4.67;;;;;;;;5015080;28;45319;-73
2022/07/22 06:05:41;;;;;;;;;2.67;2.67;;;;;;;;5013378;28;45455;-74
2022/07/22 06:08:06;;;;;;;;;3.33;3.33;;;;;;;;5014375;28;47310;-73
2022/07/22 06:10:31;;;;;;;;;5.00;5.00;;;;;;;;5014068;28;45436;-73
2022/07/22 06:12:56;;;;;;;;;5.33;4.33;;;;;;;;5014716;28;45236;-73
2022/07/22 06:15:22;;;;;;;;;3.67;3.67;;;;;;;;5017664;28;45272;-73
2022/07/22 06:17:47;;;;;;;;;3.33;3.33;;;;;;;;5017997;28;46350;-74
2022/07/22 06:20:12;;;;;;;;;5.33;5.00;;;;;;;;5017701;28;45363;-73
2022/07/22 06:22:39;;;;;;;;;3.33;3.33;;;;;;;;5017915;28;45426;-73
2022/07/22 06:25:05;;;;;;;;;4.00;4.00;;;;;;;;5017710;28;45543;-73
2022/07/22 06:27:30;;;;;;;;;4.00;4.00;;;;;;;;5017224;28;46248;-73
2022/07/22 06:29:55;;;;;;;;;5.33;3.00;;;;;;;;5017225;28;45304;-73
2022/07/22 06:32:21;;;;;;;;;3.67;3.67;;;;;;;;5017896;28;45344;-73
2022/07/22 06:34:46;;;;;;;;;4.00;4.00;;;;;;;;5017596;28;45456;-73
2022/07/22 06:37:11;;;;;;;;;3.00;3.00;;;;;;;;5017445;28;46981;-74
2022/07/22 06:39:36;;;;;;;;;6.00;4.00;;;;;;;;5017987;28;45628;-73
2022/07/22 06:42:01;;;;;;;;;4.67;4.67;;;;;;;;5017625;28;45320;-74
2022/07/22 06:44:27;;;;;;;;;6.00;6.00;;;;;;;;5017513;28;45371;-73
2022/07/22 06:46:52;;;;;;;;;3.00;3.00;;;;;;;;5017006;28;45351;-73
2022/07/22 06:49:17;;;;;;;;;4.33;4.33;;;;;;;;5017662;28;46181;-73
2022/07/22 06:51:42;;;;;;;;;5.00;4.00;;;;;;;;5015510;28;45439;-73
2022/07/22 06:54:07;;;;;;;;;4.00;4.00;;;;;;;;5007158;28;45320;-73
2022/07/22 06:56:33;;;;;;;;;3.67;2.33;;;;;;;;5017286;28;45488;-73
2022/07/22 06:58:58;;;;;;;;;5.00;5.00;;;;;;;;5009689;28;46134;-73
2022/07/22 07:01:23;;;;;;;;;3.33;3.33;;;;;;;;5017977;28;45478;-73
2022/07/22 07:03:48;;;;;;;;;3.33;3.00;;;;;;;;5017477;28;45461;-73
2022/07/22 07:06:14;;;;;;;;;4.33;4.00;;;;;;;;5017132;28;45509;-74
2022/07/22 07:08:39;;;;;;;;;3.00;3.00;;;;;;;;5016817;28;45486;-73
2022/07/22 07:11:04;;;;;;;;;5.00;2.33;;;;;;;;5017481;28;45819;-73
2022/07/22 07:13:30;;;;;;;;;3.67;3.67;;;;;;;;5016702;28;45363;-73
2022/07/22 07:15:55;;;;;;;;;4.33;4.33;;;;;;;;5016790;28;47327;-73
2022/07/22 07:18:20;;;;;;;;;5.67;4.00;;;;;;;;5017168;28;45331;-74
2022/07/22 07:20:46;;;;;;;;;3.67;3.67;;;;;;;;5016841;28;45490;-74
2022/07/22 07:23:11;;;;;;;;;4.67;4.67;;;;;;;;5016863;28;45471;-74
2022/07/22 07:25:36;;;;;;;;;3.33;3.33;;;;;;;;5019661;28;46219;-73
2022/07/22 07:28:01;;;;;;;;;4.33;3.00;;;;;;;;5016751;28;45378;-74
2022/07/22 07:30:27;;;;;;;;;4.67;4.67;;;;;;;;5017427;28;45297;-73
2022/07/22 07:32:52;;;;;;;;;4.00;4.00;;;;;;;;5016744;28;45393;-73
2022/07/22 07:35:17;;;;;;;;;4.00;2.00;;;;;;;;5017177;28;46160;-74
2022/07/22 07:37:42;;;;;;;;;4.00;4.00;;;;;;;;5016861;28;45594;-73
2022/07/22 07:40:08;;;;;;;;;3.00;3.00;;;;;;;;5016456;28;45891;-73
2022/07/22 07:42:33;;;;;;;;;3.33;3.33;;;;;;;;5016447;28;45337;-73
2022/07/22 07:44:58;;;;;;;;;4.00;4.00;;;;;;;;5016165;28;46132;-73
2022/07/22 07:47:23;;;;;;;;;3.67;3.67;;;;;;;;5015426;28;45500;-72
2022/07/22 07:49:49;;;;;;;;;4.00;4.00;;;;;;;;5016828;28;45280;-74
2022/07/22 07:52:15;;;;;;;;;5.33;4.00;;;;;;;;5016909;28;45469;-73
2022/07/22 07:54:41;;;;;;;;;4.33;3.33;;;;;;;;5016430;28;47000;-73
2022/07/22 07:57:07;;;;;;;;;3.67;3.67;;;;;;;;5015966;28;45694;-73
2022/07/22 07:59:33;;;;;;;;;4.00;4.00;;;;;;;;5016879;28;45288;-73
2022/07/22 08:01:58;;;;;;;;;4.67;3.67;;;;;;;;5016132;28;45408;-73
2022/07/22 08:04:24;;;;;;;;;5.67;5.00;;;;;;;;5016590;28;46094;-74
2022/07/22 08:06:49;;;;;;;;;4.00;4.00;;;;;;;;5016420;28;45304;-73
2022/07/22 08:09:15;;;;;;;;;4.00;2.00;;;;;;;;5016300;28;45387;-74
2022/07/22 08:11:40;;;;;;;;;4.33;4.33;;;;;;;;5015993;28;45495;-73
2022/07/22 08:14:05;;;;;;;;;5.00;4.00;;;;;;;;5016214;28;47217;-73
2022/07/22 08:16:30;;;;;;;;;7.00;5.00;;;;;;;;5016326;28;45427;-73
2022/07/22 08:18:56;;;;;;;;;4.67;4.67;;;;;;;;5016214;28;45324;-73
2022/07/22 08:21:21;;;;;;;;;4.00;4.00;;;;;;;;5016506;28;45509;-73
2022/07/22 08:23:46;;;;;;;;;4.00;4.00;;;;;;;;5016074;28;45435;-73
2022/07/22 08:26:11;;;;;;;;;4.67;4.67;;;;;;;;5015273;28;45309;-73
2022/07/22 08:28:36;;;;;;;;;4.00;4.00;;;;;;;;5016459;28;45469;-73
2022/07/22 08:31:02;;;;;;;;;4.67;4.67;;;;;;;;5015910;28;45410;-73
2022/07/22 08:33:27;;;;;;;;;4.67;4.33;;;;;;;;5015735;28;46554;-73
2022/07/22 08:35:52;;;;;;;;;3.33;3.33;;;;;;;;5014906;28;45290;-73
2022/07/22 08:38:17;;;;;;;;;6.00;5.00;;;;;;;;5015774;28;45385;-73
2022/07/22 08:40:43;;;;;;;;;5.33;5.33;;;;;;;;5015375;28;45325;-73
2022/07/22 08:43:08;;;;;;;;;4.00;4.00;;;;;;;;5015693;28;47270;-74
2022/07/22 08:45:33;;;;;;;;;4.00;4.00;;;;;;;;5015914;28;45262;-73
2022/07/22 08:47:59;;;;;;;;;3.67;3.67;;;;;;;;5015917;28;45265;-73
2022/07/22 08:50:24;;;;;;;;;4.00;4.00;;;;;;;;5015391;28;45553;-73
2022/07/22 08:52:50;;;;;;;;;4.33;3.00;;;;;;;;5015282;28;46237;-73
2022/07/22 08:55:15;;;;;;;;;4.33;4.33;;;;;;;;5015449;28;45473;-73
2022/07/22 08:57:44;;;;;;;;;4.67;3.33;;;;;;;;5015382;28;45202;-74
2022/07/22 09:00:11;;;;;;;;;2.00;2.00;;;;;;;;5015469;28;45436;-74
2022/07/22 09:02:38;;;;;;;;;2.67;2.67;;;;;;;;5015487;28;46000;-73
2022/07/22 09:05:05;;;;;;;;;3.00;2.67;;;;;;;;5015176;28;45361;-73
2022/07/22 09:07:37;;;;;;;;;3.33;3.33;;;;;;;;5015207;28;45450;-73
2022/07/22 09:10:04;;;;;;;;;3.33;3.33;;;;;;;;5014847;28;45515;-73
2022/07/22 09:12:31;;;;;;;;;3.00;2.33;;;;;;;;5015170;28;45387;-73
2022/07/22 09:14:57;;;;;;;;;4.00;4.00;;;;;;;;5015151;28;45400;-73
2022/07/22 09:17:35;;;;;;;;;5.33;4.00;;;;;;;;5015339;28;45458;-73
2022/07/22 09:20:01;;;;;;;;;4.00;3.00;;;;;;;;5014978;28;45516;-74
2022/07/22 09:22:32;;;;;;;;;3.33;3.33;;;;;;;;5014527;28;45986;-73
2022/07/22 09:24:58;;;;;;;;;4.67;3.33;;;;;;;;5014229;28;45464;-73
2022/07/22 09:27:24;;;;;;;;;4.67;3.00;;;;;;;;5015112;28;45440;-73
2022/07/22 09:29:50;;;;;;;;;4.00;3.00;;;;;;;;5015490;28;45479;-73
2022/07/22 09:32:15;;;;;;;;;6.00;6.00;;;;;;;;5014872;28;46201;-73
2022/07/22 09:34:40;;;;;;;;;3.00;3.00;;;;;;;;5015073;28;45300;-73
2022/07/22 09:37:05;;;;;;;;;6.00;5.00;;;;;;;;5015331;28;45372;-74
2022/07/22 09:39:32;;;;;;;;;5.00;5.00;;;;;;;;5014648;28;45438;-73
2022/07/22 09:42:02;;;;;;;;;4.00;4.00;;;;;;;;5014800;28;47675;-73
2022/07/22 09:44:27;;;;;;;;;4.67;3.33;;;;;;;;5014864;28;45387;-74
2022/07/22 09:46:52;;;;;;;;;6.33;6.33;;;;;;;;5015193;28;45331;-73
2022/07/22 09:49:30;;;;;;;;;5.33;5.00;;;;;;;;5017354;28;45328;-73
2022/07/22 09:51:56;;;;;;;;;5.00;4.67;;;;;;;;5005023;28;46177;-73
2022/07/22 09:54:22;;;;;;;;;4.67;4.67;;;;;;;;5018727;28;45879;-73
2022/07/22 09:56:47;;;;;;;;;4.33;4.33;;;;;;;;5018005;28;45364;-73
2022/07/22 09:59:12;;;;;;;;;5.00;5.00;;;;;;;;5018381;28;45358;-73
2022/07/22 10:01:38;;;;;;;;;4.00;2.67;;;;;;;;5017806;28;46419;-74
2022/07/22 10:04:05;;;;;;;;;3.67;3.67;;;;;;;;5018533;28;45427;-73
2022/07/22 10:06:30;;;;;;;;;4.33;4.33;;;;;;;;5018026;28;45372;-74
2022/07/22 10:08:56;;;;;;;;;2.67;2.67;;;;;;;;5017999;28;45265;-73
2022/07/22 10:11:21;;;;;;;;;3.33;3.33;;;;;;;;5017759;28;46308;-74
2022/07/22 10:13:47;;;;;;;;;5.00;5.00;;;;;;;;5032250;28;45397;-74
2022/07/22 10:16:13;;;;;;;;;6.00;5.00;;;;;;;;5018035;28;45704;-73
2022/07/22 10:18:39;;;;;;;;;4.67;4.67;;;;;;;;5018004;28;45388;-74
2022/07/22 10:21:05;;;;;;;;;6.33;6.00;;;;;;;;5017416;28;46428;-74
2022/07/22 10:23:30;;;;;;;;;4.33;3.33;;;;;;;;5017621;28;45389;-74
2022/07/22 10:25:58;;;;;;;;;5.67;5.67;;;;;;;;5017864;28;45265;-74
2022/07/22 10:28:23;;;;;;;;;5.00;5.00;;;;;;;;5014571;28;45523;-73
2022/07/22 10:30:48;;;;;;;;;4.33;4.33;;;;;;;;5012971;28;45901;-74
2022/07/22 10:33:17;;;;;;;;;5.00;5.00;;;;;;;;5017908;28;45380;-73
2022/07/22 10:35:42;;;;;;;;;6.00;6.00;;;;;;;;5016579;28;45444;-73
2022/07/22 10:38:08;;;;;;;;;5.00;5.00;;;;;;;;5017193;28;45653;-74
2022/07/22 10:40:47;;;;;;;;;6.00;4.33;;;;;;;;5017544;28;46836;-74
2022/07/22 10:43:12;;;;;;;;;5.00;4.33;;;;;;;;5017732;28;45238;-74
2022/07/22 10:45:47;;;;;;;;;4.00;4.00;;;;;;;;5017896;28;45281;-74
2022/07/22 10:48:48;;;;;;;;;6.33;4.67;;;;;;;;5017363;28;45281;-74
2022/07/22 10:51:15;;;;;;;;;6.33;5.00;;;;;;;;4994928;28;46330;-74
2022/07/22 10:53:40;;;;;;;;;8.00;6.67;;;;;;;;4995061;28;45487;-74
2022/07/22 10:56:05;;;;;;;;;3.00;3.00;;;;;;;;4995552;28;45472;-74
2022/07/22 10:58:33;;;;;;;;;6.33;4.33;;;;;;;;4995232;28;45576;-74
2022/07/22 11:01:03;;;;;;;;;6.00;5.33;;;;;;;;4994967;28;45307;-74
2022/07/22 11:03:29;;;;;;;;;6.67;6.00;;;;;;;;4994596;28;46892;-74
2022/07/22 11:05:56;;;;;;;;;5.00;5.00;;;;;;;;4994821;28;45585;-74
2022/07/22 11:08:21;;;;;;;;;4.00;4.00;;;;;;;;4994906;28;45448;-74
2022/07/22 11:10:47;;;;;;;;;5.33;4.33;;;;;;;;4995105;28;45392;-73
2022/07/22 11:13:13;;;;;;;;;7.00;5.00;;;;;;;;4994974;28;45370;-74
2022/07/22 11:15:38;;;;;;;;;5.33;5.33;;;;;;;;4995176;28;45520;-74
2022/07/22 11:18:03;;;;;;;;;5.00;5.00;;;;;;;;4995266;28;45361;-73
2022/07/22 11:20:29;;;;;;;;;5.33;5.33;;;;;;;;4994305;28;46151;-74
2022/07/22 11:22:54;;;;;;;;;7.67;6.67;;;;;;;;4995060;28;45451;-73
2022/07/22 11:25:25;;;;;;;;;4.00;4.00;;;;;;;;4998371;28;45310;-73
2022/07/22 11:27:51;;;;;;;;;5.33;5.33;;;;;;;;5015652;28;45418;-73
2022/07/22 11:30:17;;;;;;;;;2.00;2.00;;;;;;;;5017176;28;47018;-73
2022/07/22 11:32:42;;;;;;;;;5.33;5.33;;;;;;;;5015975;28;45355;-73
2022/07/22 11:35:10;;;;;;;;;6.33;4.00;;;;;;;;5016577;28;45277;-73
2022/07/22 11:37:36;;;;;;;;;6.67;5.00;;;;;;;;5016910;28;45443;-74
2022/07/22 11:40:03;;;;;;;;;6.67;5.00;;;;;;;;5016573;28;45457;-73
2022/07/22 11:42:29;;;;;;;;;5.00;5.00;;;;;;;;5016941;28;45389;-73
2022/07/22 11:44:54;;;;;;;;;5.67;5.67;;;;;;;;5016497;28;45368;-73
2022/07/22 11:47:19;;;;;;;;;4.00;3.33;;;;;;;;5017020;28;45460;-73
2022/07/22 11:49:45;;;;;;;;;7.33;5.67;;;;;;;;5016339;28;46866;-73
2022/07/22 11:52:14;;;;;;;;;5.00;5.00;;;;;;;;5015238;28;45399;-73
2022/07/22 11:54:42;;;;;;;;;6.33;5.67;;;;;;;;5016489;28;45320;-73
2022/07/22 11:57:08;;;;;;;;;5.67;4.33;;;;;;;;5016284;28;45858;-73
2022/07/22 11:59:34;;;;;;;;;5.33;5.00;;;;;;;;5016228;28;47124;-73
2022/07/22 12:02:00;;;;;;;;;7.00;7.00;;;;;;;;5016247;28;45415;-73
2022/07/22 12:04:27;;;;;;;;;4.67;4.33;;;;;;;;5014576;28;45542;-74
2022/07/22 12:06:54;;;;;;;;;6.33;6.33;;;;;;;;5015997;28;45383;-73
2022/07/22 12:09:19;;;;;;;;;5.33;5.33;;;;;;;;5015946;28;45507;-73
2022/07/22 12:11:46;;;;;;;;;7.00;6.67;;;;;;;;5014839;28;45218;-74
2022/07/22 12:14:13;;;;;;;;;2.67;2.67;;;;;;;;5015839;28;45214;-73
2022/07/22 12:16:39;;;;;;;;;6.00;4.67;;;;;;;;5016097;28;45338;-73
2022/07/22 12:19:05;;;;;;;;;6.33;5.00;;;;;;;;5015764;28;46418;-73
2022/07/22 12:21:32;;;;;;;;;6.00;6.00;;;;;;;;5016057;28;45304;-74
2022/07/22 12:24:01;;;;;;;;;5.33;5.33;;;;;;;;5016267;28;45324;-74
2022/07/22 12:26:43;;;;;;;;;5.00;5.00;;;;;;;;5016027;28;45406;-73
2022/07/22 12:29:16;;;;;;;;;8.00;6.00;;;;;;;;5015716;28;45335;-73
2022/07/22 12:31:45;;;;;;;;;6.33;5.33;;;;;;;;5015505;28;45444;-74
2022/07/22 12:34:10;;;;;;;;;6.33;6.33;;;;;;;;5015723;28;45407;-73
2022/07/22 12:36:36;;;;;;;;;6.00;6.00;;;;;;;;5015804;28;45432;-73
2022/07/22 12:39:14;;;;;;;;;7.67;6.00;;;;;;;;5015706;28;46305;-73
2022/07/22 12:41:47;;;;;;;;;7.00;7.00;;;;;;;;5015931;28;45366;-73
2022/07/22 12:44:19;;;;;;;;;5.33;5.33;;;;;;;;5015879;28;45740;-73
2022/07/22 12:46:48;;;;;;;;;6.33;6.33;;;;;;;;5015558;28;45364;-73
2022/07/22 12:49:15;;;;;;;;;7.67;6.00;;;;;;;;5015214;28;46775;-73
2022/07/22 12:51:40;;;;;;;;;6.00;6.00;;;;;;;;5015749;28;46657;-73
2022/07/22 12:54:05;;;;;;;;;9.00;7.33;;;;;;;;5015581;28;45510;-73
2022/07/22 12:56:31;;;;;;;;;6.00;6.00;;;;;;;;5015735;28;45351;-73
2022/07/22 12:58:56;;;;;;;;;6.00;5.67;;;;;;;;5013161;28;46916;-73
2022/07/22 13:01:21;;;;;;;;;5.67;4.00;;;;;;;;5015128;28;45376;-73
2022/07/22 13:03:46;;;;;;;;;6.00;6.00;;;;;;;;5015685;28;45229;-73
2022/07/22 13:06:12;;;;;;;;;4.67;4.00;;;;;;;;5014261;28;45385;-73
2022/07/22 13:08:37;;;;;;;;;7.33;6.67;;;;;;;;5015505;28;47130;-73
2022/07/22 13:11:02;;;;;;;;;5.67;5.33;;;;;;;;5015643;28;45375;-74
2022/07/22 13:13:27;;;;;;;;;4.00;4.00;;;;;;;;5015704;28;45331;-73
2022/07/22 13:15:52;;;;;;;;;6.00;6.00;;;;;;;;5015118;28;45324;-73
2022/07/22 13:18:18;;;;;;;;;11.67;6.67;;;;;;;;5015241;28;46125;-74
2022/07/22 13:20:43;;;;;;;;;5.33;5.33;;;;;;;;5015106;28;45645;-73
2022/07/22 13:23:08;;;;;;;;;5.67;5.00;;;;;;;;5017063;28;45343;-73
2022/07/22 13:25:34;;;;;;;;;4.33;4.00;;;;;;;;5016156;28;45428;-73
2022/07/22 13:28:00;;;;;;;;;6.00;6.00;;;;;;;;5013518;28;46717;-73
2022/07/22 13:30:25;;;;;;;;;4.33;3.67;;;;;;;;5018396;28;45297;-74
2022/07/22 13:32:51;;;;;;;;;6.33;5.33;;;;;;;;5018031;28;45471;-73
2022/07/22 13:35:17;;;;;;;;;4.67;4.67;;;;;;;;5018754;28;45351;-74
2022/07/22 13:37:42;;;;;;;;;6.67;6.67;;;;;;;;5018595;28;45340;-74
2022/07/22 13:40:08;;;;;;;;;5.00;5.00;;;;;;;;5018686;28;45384;-73
2022/07/22 13:42:33;;;;;;;;;11.00;8.67;;;;;;;;5018818;28;45332;-74
2022/07/22 13:44:58;;;;;;;;;8.00;8.00;;;;;;;;5018398;28;45332;-73
2022/07/22 13:47:26;;;;;;;;;8.00;6.33;;;;;;;;5018434;28;45671;-73
2022/07/22 13:49:51;;;;;;;;;5.67;5.67;;;;;;;;5018640;28;45447;-73
2022/07/22 13:52:18;;;;;;;;;8.00;7.33;;;;;;;;5018637;28;45352;-73
2022/07/22 13:54:43;;;;;;;;;8.00;7.67;;;;;;;;5021839;28;45260;-74
2022/07/22 13:57:09;;;;;;;;;4.67;4.67;;;;;;;;5018098;28;46077;-73
2022/07/22 13:59:34;;;;;;;;;8.00;6.67;;;;;;;;5017848;28;45274;-73
2022/07/22 14:01:59;;;;;;;;;5.67;5.67;;;;;;;;5018307;28;45419;-74
2022/07/22 14:04:25;;;;;;;;;6.67;6.00;;;;;;;;5017407;28;45213;-73
2022/07/22 14:06:50;;;;;;;;;6.33;6.33;;;;;;;;5015641;28;45419;-73
2022/07/22 14:09:15;;;;;;;;;7.00;5.00;;;;;;;;5017830;28;45485;-73
2022/07/22 14:11:41;;;;;;;;;6.67;6.67;;;;;;;;5018497;28;45281;-73
2022/07/22 14:14:07;;;;;;;;;6.00;6.00;;;;;;;;5017679;28;45445;-74
2022/07/22 14:16:35;;;;;;;;;6.00;6.00;;;;;;;;5017887;28;46220;-73
2022/07/22 14:19:01;;;;;;;;;8.00;8.00;;;;;;;;5018158;28;45474;-73
2022/07/22 14:21:27;;;;;;;;;6.00;5.33;;;;;;;;5017923;28;45475;-73
2022/07/22 14:23:52;;;;;;;;;7.00;7.00;;;;;;;;5017985;28;45324;-73
2022/07/22 14:26:17;;;;;;;;;6.67;6.00;;;;;;;;5017247;28;45987;-73
2022/07/22 14:28:42;;;;;;;;;5.33;5.33;;;;;;;;5016392;28;45360;-73
2022/07/22 14:31:08;;;;;;;;;7.67;7.67;;;;;;;;5017958;28;45260;-74
2022/07/22 14:33:33;;;;;;;;;7.00;7.00;;;;;;;;5017647;28;45365;-73
2022/07/22 14:35:58;;;;;;;;;10.33;9.00;;;;;;;;5016448;28;46218;-74